Аэропорт: Ужгород. Ужгород

ICAO: UKLU

METAR:
Информация по данной станции не доступна
METAR:
2021-10-22 20:00:00
TAF UKLU 222000Z 2221/2306 VRB01MPS 9999 NSC